Puerto Banus, Marbella

>

This is an optional block (switch it off / on) in the settings - file ($SITE['banners'] = false;)

You can display ads, any other important text or photo’s using text / html or PHP code.

You can place one or more at the top and or bottom and it can all be different for content / size .



Thunder radar more information blitzortung!


Rain radar  rain snow radar


Visit our other weather sites:

Documentation for the template used

MeteoibericaRed estaciones Meteorologicas

MeteoclimaticRed estaciones Meteorologicas



No particular awareness of the weather is required.    There are no Weather-warnings

Nearby METAR Reports

   
EBAW - Antwerp
Updated: 17-10-2018 01:20
Clear  
Clear  
   Wind: SSE 5.6 km/h
Wind: SSE 5.6 km/h
Temperature: 13°C
Dew Point: 8°C
Humidity: 72%
Barometer: 1018 hPa
Visibility: More than 10 km
Cloud details: Clear
EBAW 162320Z AUTO 15003KT CAVOK 13/08 Q1018
EBLG - Liège
Updated: 17-10-2018 01:20
Clear  
Clear  
   Wind: SE 14.8 km/h
Wind: SE 14.8 km/h
Temperature: 15°C
Dew Point: 8°C
Humidity: 63%
Barometer: 1019 hPa
Visibility: More than 10 km
Cloud details: Clear
EBLG 162320Z 14008KT 120V180 CAVOK 15/08 Q1019 NOSIG
EBCV - Mons/Bergen
Updated: 17-10-2018 01:25
Clear  
Clear  
   Wind: West 7.4 km/h
Wind: West 7.4 km/h
Temperature: 13°C
Dew Point: 9°C
Humidity: 77%
Barometer: 1019 hPa
Clouds: Clear
Visibility: More than 10 km
Cloud details: Clear
EBCV 162325Z AUTO 27004KT 9999 NCD 13/09 Q1019 BLU
EHBK - Maastricht
Updated: 17-10-2018 01:25
Partly Cloudy  
Partly Cloudy  
   Wind: South 9.3 km/h
Wind: South 9.3 km/h
Temperature: 15°C
Dew Point: 8°C
Humidity: 63%
Barometer: 1018 hPa
Clouds: Partly Cloudy
Visibility: More than 10 km
Cloud details: Partly Cloudy
EHBK 162325Z AUTO 19005KT 160V230 9999 NSC 15/08 Q1018
ELLX - Luxemburg
Updated: 17-10-2018 01:20
Clear  
Clear  
   Wind: NE 9.3 km/h
Wind: NE 9.3 km/h
Temperature: 16°C
Dew Point: 8°C
Humidity: 59%
Barometer: 1020 hPa
Visibility: More than 10 km
Cloud details: Clear
ELLX 162320Z 05005KT CAVOK 16/08 Q1020 NOSIG
EBOS - Oostende
Updated: 17-10-2018 01:20
Partly Cloudy  
Partly Cloudy  
   Wind: SSW 5.6 km/h
Wind: SSW 5.6 km/h
Temperature: 12°C
Dew Point: 10°C
Humidity: 88%
Barometer: 1018 hPa
Clouds: Partly Cloudy
Visibility: 6 km
Cloud details: Partly Cloudy
EBOS 162320Z 21003KT 6000 NSC 12/10 Q1018 BECMG 4000 BR

Script developed by  Saratoga-weather.org Adapted for the template by  Weerstation Leuven

You find our weather info also at:

Weather Underground

Iberian Peninsula Weather Network